OR Tambo International Airport, South Africa

3:54 PM SAST on December 11, 2016 (GMT +0200)
Benoni Farrarmere | | Change Station

Elev 5486 ft 26.15 °S, 28.30 °E | Updated 17 seconds ago

Mostly Cloudy
Mostly Cloudy
77.0 °F
Feels Like 79 °F
N
2.0
Wind Variable Wind from ENE
Gusts 10.0 mph

Today
High -- | Low -- °F
--% Chance of Precip.
Yesterday
High -- | Low -- °F
Precip. -- in
Pressure 30.18 in
Visibility 6.2 miles
Clouds Mostly Cloudy 4500 ft
Heat Index 79 °F
Dew Point 57 °F
Humidity 50%
Rainfall 0.00 in
Snow Depth Not available.
5:08 AM 6:53 PM
Waxing Gibbous, 91% visible
METAR FAOR 111330Z 33010KT 300V010 9999 BKN045 24/13 Q1022 NOSIG
Pressure 30.18 in
Visibility 6.2 miles
Clouds Mostly Cloudy 4500 ft
Heat Index 79 °F
Dew Point 57 °F
Humidity 50%
Rainfall 0.00 in
Snow Depth Not available.
5:08 AM 6:53 PM
Waxing Gibbous, 91% visible
METAR FAOR 111330Z 33010KT 300V010 9999 BKN045 24/13 Q1022 NOSIG

10-Day Weather Forecast

No radar image for this location.
×

Almanac

Astronomy

Dec. 11, 2016 Rise Set
Actual Time
Civil Twilight
Nautical Twilight
Astronomical Twilight
Moon
Length of Visible Light
Length of Day
Tomorrow will be .
, % of the Moon is Illuminated

Today's Extremes

Country Highs Country Lows

Community

WunderPhotos

Upload Photos

1,956,708 photos uploaded!

WunderBlog® & News

Nearby

Air Quality

  Air Quality AQ Index Pollutant
Not available.

Snow Depth

Station Depth Elevation

Earthquake Activity

City Distance Mag. Time & Date
Minimum magnitude displayed is 2.5.

Coastal Water Temperatures

Place Temperature

Stations

Nearby Weather Stations

Station Location Temp. Windchill Dew Point Humidity Wind Precip. Elev Updated Type